Terminal Aerodrome Forecast
Issued by NWS

Home | Current Version | Previous Version | Text Only | Print | Product List | Glossary Off
Versions: 1 2 3 4 5 6 7 8 9 10 11 12 13 14 15 16 17 18 19 20 21 22 23 24 25 26 27 28 29 30 31 32 33 34 35

000
FTUS43 KLOT 260800 AAA
TAFORD
TAF AMD
KORD 260838Z 2609/2712 19007KT P6SM OVC035
      TEMPO 2610/2613 OVC025
     FM261600 20007KT P6SM BKN035
     FM261800 25007KT P6SM SCT035 BKN120
     FM270000 11006KT P6SM BKN120
     FM270400 24004KT 6SM BR BKN100=

USA.gov is the U.S. government's official web portal to all federal, state and local government web resources and services.